createdAt,value
2023-04-08T00:00:19.286Z,94492.00
2023-04-08T00:01:19.311Z,94490.00
2023-04-08T00:02:19.425Z,94488.00
2023-04-08T00:03:19.471Z,94488.00
2023-04-08T00:04:19.445Z,94486.00
2023-04-08T00:05:19.410Z,94482.00
2023-04-08T00:06:19.465Z,94482.00
2023-04-08T00:07:19.481Z,94480.00
2023-04-08T00:08:19.516Z,94480.00
2023-04-08T00:09:19.574Z,94480.00
2023-04-08T00:10:19.595Z,94480.00
2023-04-08T00:11:19.662Z,94480.00
2023-04-08T00:12:19.687Z,94482.00
2023-04-08T00:13:19.728Z,94482.00
2023-04-08T00:14:19.763Z,94484.00
2023-04-08T00:15:19.823Z,94484.00
2023-04-08T00:16:19.923Z,94482.00
2023-04-08T00:17:19.870Z,94484.00
2023-04-08T00:18:19.920Z,94486.00
2023-04-08T00:19:19.933Z,94482.00
2023-04-08T00:20:19.989Z,94484.00
2023-04-08T00:21:20.006Z,94482.00
2023-04-08T00:22:20.053Z,94480.00
2023-04-08T00:23:20.075Z,94482.00
2023-04-08T00:24:20.101Z,94480.00
2023-04-08T00:25:20.131Z,94482.00
2023-04-08T00:26:20.149Z,94480.00
2023-04-08T00:27:20.221Z,94482.00
2023-04-08T00:28:20.202Z,94480.00
2023-04-08T00:29:20.204Z,94482.00
2023-04-08T00:30:20.238Z,94484.00
2023-04-08T00:31:20.343Z,94482.00
2023-04-08T00:32:20.312Z,94482.00
2023-04-08T00:33:20.440Z,94480.00
2023-04-08T00:34:20.354Z,94480.00
2023-04-08T00:35:20.391Z,94484.00
2023-04-08T00:36:20.424Z,94484.00
2023-04-08T00:37:20.433Z,94482.00
2023-04-08T00:38:20.468Z,94482.00
2023-04-08T00:39:20.470Z,94484.00
2023-04-08T00:40:20.506Z,94484.00
2023-04-08T00:41:20.570Z,94482.00
2023-04-08T00:42:20.602Z,94482.00
2023-04-08T00:43:20.609Z,94486.00
2023-04-08T00:44:20.640Z,94484.00
2023-04-08T00:45:20.673Z,94486.00
2023-04-08T00:46:20.718Z,94482.00
2023-04-08T00:47:20.800Z,94484.00
2023-04-08T00:48:20.840Z,94482.00
2023-04-08T00:49:20.831Z,94480.00
2023-04-08T00:50:20.861Z,94486.00
2023-04-08T00:51:20.863Z,94484.00
2023-04-08T00:52:20.936Z,94486.00
2023-04-08T00:53:20.939Z,94488.00
2023-04-08T00:54:20.996Z,94490.00
2023-04-08T00:55:21.041Z,94488.00
2023-04-08T00:56:21.084Z,94488.00
2023-04-08T00:57:21.123Z,94486.00
2023-04-08T00:58:21.154Z,94486.00
2023-04-08T00:59:21.184Z,94486.00
2023-04-08T01:00:21.229Z,94486.00
2023-04-08T01:01:21.229Z,94484.00
2023-04-08T01:02:21.347Z,94484.00
2023-04-08T01:03:21.414Z,94484.00
2023-04-08T01:04:21.434Z,94482.00
2023-04-08T01:05:21.312Z,94482.00
2023-04-08T01:06:21.309Z,94482.00
2023-04-08T01:07:21.355Z,94484.00
2023-04-08T01:08:21.365Z,94480.00
2023-04-08T01:09:21.385Z,94480.00
2023-04-08T01:10:21.404Z,94480.00
2023-04-08T01:11:21.478Z,94478.00
2023-04-08T01:12:21.469Z,94478.00
2023-04-08T01:13:21.490Z,94478.00
2023-04-08T01:14:21.513Z,94478.00
2023-04-08T01:15:21.528Z,94478.00
2023-04-08T01:16:21.663Z,94478.00
2023-04-08T01:17:21.608Z,94478.00
2023-04-08T01:18:21.648Z,94480.00
2023-04-08T01:19:21.654Z,94482.00
2023-04-08T01:20:21.635Z,94480.00
2023-04-08T01:21:21.661Z,94480.00
2023-04-08T01:22:21.671Z,94482.00
2023-04-08T01:23:21.725Z,94484.00
2023-04-08T01:24:21.749Z,94488.00
2023-04-08T01:25:21.787Z,94488.00
2023-04-08T01:26:21.787Z,94488.00
2023-04-08T01:27:21.794Z,94486.00
2023-04-08T01:28:21.807Z,94488.00
2023-04-08T01:29:21.828Z,94486.00
2023-04-08T01:30:21.857Z,94484.00
2023-04-08T01:31:21.902Z,94482.00
2023-04-08T01:32:21.928Z,94484.00
2023-04-08T01:33:21.933Z,94484.00
2023-04-08T01:34:21.950Z,94484.00
2023-04-08T01:35:21.992Z,94486.00
2023-04-08T01:36:21.976Z,94484.00
2023-04-08T01:37:21.999Z,94484.00
2023-04-08T01:38:22.030Z,94482.00
2023-04-08T01:39:22.045Z,94482.00
2023-04-08T01:40:22.078Z,94482.00
2023-04-08T01:41:22.069Z,94480.00
2023-04-08T01:42:22.088Z,94480.00
2023-04-08T01:43:22.102Z,94482.00
2023-04-08T01:44:22.114Z,94482.00
2023-04-08T01:45:22.113Z,94482.00
2023-04-08T01:46:22.182Z,94482.00
2023-04-08T01:47:22.136Z,94484.00
2023-04-08T01:48:22.158Z,94486.00
2023-04-08T01:49:22.161Z,94486.00
2023-04-08T01:50:22.174Z,94486.00
2023-04-08T01:51:22.244Z,94486.00
2023-04-08T01:52:22.238Z,94486.00
2023-04-08T01:53:22.240Z,94488.00
2023-04-08T01:54:22.934Z,94490.00
2023-04-08T01:55:22.253Z,94494.00
2023-04-08T01:56:22.277Z,94494.00
2023-04-08T01:57:22.256Z,94496.00
2023-04-08T01:58:22.303Z,94498.00
2023-04-08T01:59:22.267Z,94498.00
2023-04-08T02:00:22.268Z,94500.00
2023-04-08T02:01:22.327Z,94502.00
2023-04-08T02:02:22.466Z,94502.00
2023-04-08T02:03:22.707Z,94506.00
2023-04-08T02:04:22.449Z,94506.00
2023-04-08T02:05:22.355Z,94508.00
2023-04-08T02:06:22.394Z,94506.00
2023-04-08T02:07:22.380Z,94506.00
2023-04-08T02:08:22.403Z,94508.00
2023-04-08T02:09:22.550Z,94510.00
2023-04-08T02:10:22.560Z,94504.00
2023-04-08T02:11:22.539Z,94506.00
2023-04-08T02:12:22.562Z,94504.00
2023-04-08T02:13:22.530Z,94508.00
2023-04-08T02:14:22.558Z,94512.00
2023-04-08T02:15:22.557Z,94512.00
2023-04-08T02:16:22.640Z,94510.00
2023-04-08T02:17:22.634Z,94512.00
2023-04-08T02:18:22.647Z,94510.00
2023-04-08T02:19:22.677Z,94510.00
2023-04-08T02:20:22.669Z,94510.00
2023-04-08T02:21:22.683Z,94512.00
2023-04-08T02:22:22.660Z,94506.00
2023-04-08T02:23:22.687Z,94506.00
2023-04-08T02:24:22.696Z,94502.00
2023-04-08T02:25:22.695Z,94502.00
2023-04-08T02:26:22.697Z,94500.00
2023-04-08T02:27:22.714Z,94502.00
2023-04-08T02:28:22.715Z,94498.00
2023-04-08T02:29:22.745Z,94502.00
2023-04-08T02:30:22.752Z,94504.00
2023-04-08T02:31:22.801Z,94502.00
2023-04-08T02:32:22.786Z,94502.00
2023-04-08T02:33:22.819Z,94506.00
2023-04-08T02:34:22.829Z,94510.00
2023-04-08T02:35:22.895Z,94508.00
2023-04-08T02:36:22.853Z,94508.00
2023-04-08T02:37:22.867Z,94510.00
2023-04-08T02:38:22.919Z,94506.00
2023-04-08T02:39:22.916Z,94512.00
2023-04-08T02:40:22.934Z,94508.00
2023-04-08T02:41:22.956Z,94510.00
2023-04-08T02:42:23.000Z,94510.00
2023-04-08T02:43:22.985Z,94508.00
2023-04-08T02:44:23.004Z,94510.00
2023-04-08T02:45:23.024Z,94508.00
2023-04-08T02:46:23.179Z,94506.00
2023-04-08T02:47:23.111Z,94506.00
2023-04-08T02:48:23.073Z,94508.00
2023-04-08T02:49:23.079Z,94506.00
2023-04-08T02:50:23.092Z,94508.00
2023-04-08T02:51:23.093Z,94510.00
2023-04-08T02:52:23.132Z,94510.00
2023-04-08T02:53:23.136Z,94510.00
2023-04-08T02:54:23.171Z,94512.00
2023-04-08T02:55:23.192Z,94510.00
2023-04-08T02:56:23.190Z,94510.00
2023-04-08T02:57:23.259Z,94512.00
2023-04-08T02:58:23.224Z,94510.00
2023-04-08T02:59:23.241Z,94510.00
2023-04-08T03:00:23.279Z,94508.00
2023-04-08T03:01:23.284Z,94510.00
2023-04-08T03:02:23.460Z,94512.00
2023-04-08T03:03:23.358Z,94512.00
2023-04-08T03:04:23.316Z,94510.00
2023-04-08T03:05:23.334Z,94512.00
2023-04-08T03:06:23.373Z,94512.00
2023-04-08T03:07:23.401Z,94510.00
2023-04-08T03:08:23.414Z,94508.00
2023-04-08T03:09:23.434Z,94508.00
2023-04-08T03:10:23.444Z,94506.00
2023-04-08T03:11:23.454Z,94508.00
2023-04-08T03:12:23.482Z,94508.00
2023-04-08T03:13:23.539Z,94510.00
2023-04-08T03:14:23.482Z,94514.00
2023-04-08T03:15:23.505Z,94508.00
2023-04-08T03:16:23.581Z,94512.00
2023-04-08T03:17:23.554Z,94510.00
2023-04-08T03:18:23.547Z,94510.00
2023-04-08T03:19:23.526Z,94508.00
2023-04-08T03:20:23.627Z,94512.00
2023-04-08T03:21:23.793Z,94510.00
2023-04-08T03:22:23.817Z,94506.00
2023-04-08T03:23:23.820Z,94506.00
2023-04-08T03:24:23.818Z,94506.00
2023-04-08T03:25:23.850Z,94504.00
2023-04-08T03:26:23.837Z,94506.00
2023-04-08T03:27:23.849Z,94506.00
2023-04-08T03:28:23.844Z,94508.00
2023-04-08T03:29:23.861Z,94514.00
2023-04-08T03:30:23.859Z,94516.00
2023-04-08T03:31:23.917Z,94516.00
2023-04-08T03:32:23.883Z,94514.00
2023-04-08T03:33:23.897Z,94516.00
2023-04-08T03:34:23.906Z,94508.00
2023-04-08T03:35:23.965Z,94510.00
2023-04-08T03:36:23.932Z,94510.00
2023-04-08T03:37:23.971Z,94506.00
2023-04-08T03:38:23.955Z,94506.00
2023-04-08T03:39:23.966Z,94508.00
2023-04-08T03:40:23.971Z,94508.00
2023-04-08T03:41:23.996Z,94510.00
2023-04-08T03:42:23.961Z,94510.00
2023-04-08T03:43:23.967Z,94510.00
2023-04-08T03:44:24.001Z,94508.00
2023-04-08T03:45:24.000Z,94508.00
2023-04-08T03:46:24.086Z,94512.00
2023-04-08T03:47:24.049Z,94514.00
2023-04-08T03:48:24.045Z,94516.00
2023-04-08T03:49:24.045Z,94519.00
2023-04-08T03:50:24.076Z,94521.00
2023-04-08T03:51:24.074Z,94521.00
2023-04-08T03:52:24.079Z,94521.00
2023-04-08T03:53:24.105Z,94523.00
2023-04-08T03:54:24.113Z,94523.00
2023-04-08T03:55:24.166Z,94523.00
2023-04-08T03:56:24.148Z,94523.00
2023-04-08T03:57:24.114Z,94525.00
2023-04-08T03:58:24.129Z,94525.00
2023-04-08T03:59:24.142Z,94525.00
2023-04-08T04:00:24.187Z,94527.00
2023-04-08T04:01:24.176Z,94529.00
2023-04-08T04:02:24.397Z,94533.00
2023-04-08T04:03:24.320Z,94533.00
2023-04-08T04:04:24.320Z,94535.00
2023-04-08T04:05:24.234Z,94533.00
2023-04-08T04:06:24.248Z,94533.00
2023-04-08T04:07:24.232Z,94533.00
2023-04-08T04:08:24.259Z,94533.00
2023-04-08T04:09:24.266Z,94531.00
2023-04-08T04:10:24.246Z,94533.00
2023-04-08T04:11:24.229Z,94533.00
2023-04-08T04:12:24.230Z,94533.00
2023-04-08T04:13:24.243Z,94537.00
2023-04-08T04:14:24.272Z,94541.00
2023-04-08T04:15:24.268Z,94541.00
2023-04-08T04:16:24.307Z,94543.00
2023-04-08T04:17:24.308Z,94543.00
2023-04-08T04:18:24.376Z,94545.00
2023-04-08T04:19:24.317Z,94543.00
2023-04-08T04:20:24.316Z,94547.00
2023-04-08T04:21:24.303Z,94549.00
2023-04-08T04:22:24.320Z,94547.00
2023-04-08T04:23:24.347Z,94547.00
2023-04-08T04:24:24.316Z,94547.00
2023-04-08T04:25:24.331Z,94549.00
2023-04-08T04:26:24.360Z,94553.00
2023-04-08T04:27:24.318Z,94551.00
2023-04-08T04:28:24.347Z,94555.00
2023-04-08T04:29:24.329Z,94553.00
2023-04-08T04:30:24.321Z,94555.00
2023-04-08T04:31:24.520Z,94557.00
2023-04-08T04:32:24.347Z,94555.00
2023-04-08T04:33:24.332Z,94553.00
2023-04-08T04:34:24.314Z,94553.00
2023-04-08T04:35:24.331Z,94551.00
2023-04-08T04:36:24.329Z,94553.00
2023-04-08T04:37:24.312Z,94553.00
2023-04-08T04:38:24.317Z,94553.00
2023-04-08T04:39:24.326Z,94553.00
2023-04-08T04:40:24.355Z,94553.00
2023-04-08T04:41:24.349Z,94553.00
2023-04-08T04:42:24.365Z,94555.00
2023-04-08T04:43:24.374Z,94557.00
2023-04-08T04:44:24.373Z,94553.00
2023-04-08T04:45:24.378Z,94558.00
2023-04-08T04:46:24.412Z,94557.00
2023-04-08T04:47:24.421Z,94557.00
2023-04-08T04:48:24.401Z,94558.00
2023-04-08T04:49:24.391Z,94560.00
2023-04-08T04:50:24.412Z,94558.00
2023-04-08T04:51:24.457Z,94563.00
2023-04-08T04:52:24.426Z,94558.00
2023-04-08T04:53:24.446Z,94560.00
2023-04-08T04:54:24.445Z,94560.00
2023-04-08T04:55:24.449Z,94563.00
2023-04-08T04:56:24.445Z,94563.00
2023-04-08T04:57:24.472Z,94560.00
2023-04-08T04:58:24.486Z,94563.00
2023-04-08T04:59:24.480Z,94565.00
2023-04-08T05:00:24.489Z,94565.00
2023-04-08T05:01:24.525Z,94565.00
2023-04-08T05:02:24.587Z,94568.00
2023-04-08T05:03:24.575Z,94566.00
2023-04-08T05:04:24.541Z,94566.00
2023-04-08T05:05:24.581Z,94568.00
2023-04-08T05:06:24.536Z,94570.00
2023-04-08T05:07:24.547Z,94570.00
2023-04-08T05:08:27.264Z,94572.00
2023-04-08T05:09:24.533Z,94572.00
2023-04-08T05:10:24.521Z,94572.00
2023-04-08T05:11:24.499Z,94574.00
2023-04-08T05:12:24.517Z,94576.00
2023-04-08T05:13:24.500Z,94576.00
2023-04-08T05:14:24.494Z,94576.00
2023-04-08T05:15:24.508Z,94580.00
2023-04-08T05:16:24.530Z,94580.00
2023-04-08T05:17:24.533Z,94582.00
2023-04-08T05:18:24.462Z,94582.00
2023-04-08T05:19:24.460Z,94584.00
2023-04-08T05:20:24.466Z,94584.00
2023-04-08T05:21:24.446Z,94584.00
2023-04-08T05:22:24.442Z,94582.00
2023-04-08T05:23:24.426Z,94584.00
2023-04-08T05:24:24.424Z,94582.00
2023-04-08T05:25:24.419Z,94582.00
2023-04-08T05:26:24.421Z,94586.00
2023-04-08T05:27:24.393Z,94588.00
2023-04-08T05:28:24.387Z,94588.00
2023-04-08T05:29:24.394Z,94584.00
2023-04-08T05:30:24.383Z,94588.00
2023-04-08T05:31:24.416Z,94586.00
2023-04-08T05:32:24.406Z,94586.00
2023-04-08T05:33:24.370Z,94588.00
2023-04-08T05:34:24.360Z,94590.00
2023-04-08T05:35:24.382Z,94588.00
2023-04-08T05:36:24.343Z,94590.00
2023-04-08T05:37:24.348Z,94590.00
2023-04-08T05:38:24.329Z,94588.00
2023-04-08T05:39:24.334Z,94588.00
2023-04-08T05:40:24.315Z,94592.00
2023-04-08T05:41:24.341Z,94590.00
2023-04-08T05:42:24.322Z,94592.00
2023-04-08T05:43:24.291Z,94592.00
2023-04-08T05:44:24.297Z,94596.00
2023-04-08T05:45:24.292Z,94594.00
2023-04-08T05:46:24.294Z,94594.00
2023-04-08T05:47:24.288Z,94596.00
2023-04-08T05:48:24.261Z,94594.00
2023-04-08T05:49:24.259Z,94594.00
2023-04-08T05:50:24.291Z,94592.00
2023-04-08T05:51:24.268Z,94592.00
2023-04-08T05:52:24.240Z,94594.00
2023-04-08T05:53:24.237Z,94596.00
2023-04-08T05:54:24.222Z,94596.00
2023-04-08T05:55:24.247Z,94598.00
2023-04-08T05:56:24.194Z,94598.00
2023-04-08T05:57:24.204Z,94598.00
2023-04-08T05:58:24.186Z,94596.00
2023-04-08T05:59:24.174Z,94598.00
2023-04-08T06:00:24.173Z,94598.00
2023-04-08T06:01:24.192Z,94600.00
2023-04-08T06:02:24.256Z,94600.00
2023-04-08T06:03:24.327Z,94604.00
2023-04-08T06:04:24.190Z,94604.00
2023-04-08T06:05:24.143Z,94604.00
2023-04-08T06:06:24.140Z,94604.00
2023-04-08T06:07:24.138Z,94609.00
2023-04-08T06:08:24.108Z,94609.00
2023-04-08T06:09:24.123Z,94609.00
2023-04-08T06:10:24.097Z,94611.00
2023-04-08T06:11:24.121Z,94611.00
2023-04-08T06:12:24.086Z,94611.00
2023-04-08T06:13:24.081Z,94609.00
2023-04-08T06:14:24.090Z,94609.00
2023-04-08T06:15:24.055Z,94609.00
2023-04-08T06:16:24.087Z,94611.00
2023-04-08T06:17:24.123Z,94609.00
2023-04-08T06:18:24.039Z,94609.00
2023-04-08T06:19:24.031Z,94607.00
2023-04-08T06:20:24.018Z,94607.00
2023-04-08T06:21:24.012Z,94607.00
2023-04-08T06:22:24.006Z,94607.00
2023-04-08T06:23:24.005Z,94605.00
2023-04-08T06:24:23.985Z,94604.00
2023-04-08T06:25:24.046Z,94604.00
2023-04-08T06:26:24.126Z,94605.00
2023-04-08T06:27:24.183Z,94605.00
2023-04-08T06:28:24.259Z,94607.00
2023-04-08T06:29:24.300Z,94607.00
2023-04-08T06:30:24.317Z,94609.00
2023-04-08T06:31:24.469Z,94609.00
2023-04-08T06:32:24.466Z,94613.00
2023-04-08T06:33:24.527Z,94611.00
2023-04-08T06:34:24.544Z,94607.00
2023-04-08T06:35:24.618Z,94605.00
2023-04-08T06:36:24.653Z,94607.00
2023-04-08T06:37:24.724Z,94605.00
2023-04-08T06:38:24.803Z,94605.00
2023-04-08T06:39:24.816Z,94605.00
2023-04-08T06:40:24.887Z,94605.00
2023-04-08T06:41:24.921Z,94607.00
2023-04-08T06:42:25.022Z,94607.00
2023-04-08T06:43:25.033Z,94609.00
2023-04-08T06:44:25.061Z,94609.00
2023-04-08T06:45:25.123Z,94609.00
2023-04-08T06:46:25.288Z,94609.00
2023-04-08T06:47:25.226Z,94607.00
2023-04-08T06:48:25.260Z,94609.00
2023-04-08T06:49:25.286Z,94609.00
2023-04-08T06:50:25.348Z,94609.00
2023-04-08T06:51:25.379Z,94611.00
2023-04-08T06:52:25.428Z,94605.00
2023-04-08T06:53:25.482Z,94605.00
2023-04-08T06:54:25.478Z,94607.00
2023-04-08T06:55:25.534Z,94605.00
2023-04-08T06:56:25.557Z,94605.00
2023-04-08T06:57:25.609Z,94602.00
2023-04-08T06:58:25.643Z,94602.00
2023-04-08T06:59:25.647Z,94602.00
2023-04-08T07:00:25.699Z,94605.00
2023-04-08T07:01:25.781Z,94604.00
2023-04-08T07:02:25.815Z,94604.00
2023-04-08T07:03:25.856Z,94604.00
2023-04-08T07:04:25.877Z,94602.00
2023-04-08T07:05:25.830Z,94604.00
2023-04-08T07:06:25.841Z,94604.00
2023-04-08T07:07:25.833Z,94604.00
2023-04-08T07:08:25.915Z,94605.00
2023-04-08T07:09:25.898Z,94604.00
2023-04-08T07:10:25.960Z,94602.00
2023-04-08T07:11:25.890Z,94602.00
2023-04-08T07:12:25.881Z,94604.00
2023-04-08T07:13:25.910Z,94605.00
2023-04-08T07:14:25.889Z,94605.00
2023-04-08T07:15:25.938Z,94607.00
2023-04-08T07:16:25.931Z,94605.00
2023-04-08T07:17:25.951Z,94604.00
2023-04-08T07:18:25.918Z,94609.00
2023-04-08T07:19:25.932Z,94609.00
2023-04-08T07:20:25.934Z,94607.00
2023-04-08T07:21:25.950Z,94609.00
2023-04-08T07:22:26.145Z,94607.00
2023-04-08T07:23:25.994Z,94607.00
2023-04-08T07:24:25.962Z,94609.00
2023-04-08T07:25:26.038Z,94609.00
2023-04-08T07:26:25.996Z,94609.00
2023-04-08T07:27:26.004Z,94609.00
2023-04-08T07:28:25.998Z,94607.00
2023-04-08T07:29:26.001Z,94609.00
2023-04-08T07:30:26.015Z,94607.00
2023-04-08T07:31:26.071Z,94607.00
2023-04-08T07:32:26.054Z,94607.00
2023-04-08T07:33:26.047Z,94607.00
2023-04-08T07:34:26.040Z,94607.00
2023-04-08T07:35:26.092Z,94605.00
2023-04-08T07:36:26.049Z,94609.00
2023-04-08T07:37:26.030Z,94605.00
2023-04-08T07:38:26.060Z,94611.00
2023-04-08T07:39:26.092Z,94607.00
2023-04-08T07:40:26.109Z,94609.00
2023-04-08T07:41:26.084Z,94607.00
2023-04-08T07:42:26.090Z,94609.00
2023-04-08T07:43:26.090Z,94607.00
2023-04-08T07:44:26.094Z,94611.00
2023-04-08T07:45:26.104Z,94609.00
2023-04-08T07:46:26.124Z,94613.00
2023-04-08T07:47:26.159Z,94609.00
2023-04-08T07:48:26.100Z,94611.00
2023-04-08T07:49:26.132Z,94613.00
2023-04-08T07:50:26.137Z,94613.00
2023-04-08T07:51:26.151Z,94613.00
2023-04-08T07:52:26.180Z,94611.00
2023-04-08T07:53:26.182Z,94611.00
2023-04-08T07:54:26.178Z,94611.00
2023-04-08T07:55:26.171Z,94615.00
2023-04-08T07:56:26.188Z,94615.00
2023-04-08T07:57:26.172Z,94615.00
2023-04-08T07:58:26.202Z,94619.00
2023-04-08T07:59:26.196Z,94615.00
2023-04-08T08:00:26.222Z,94615.00
2023-04-08T08:01:26.213Z,94615.00
2023-04-08T08:02:26.405Z,94615.00
2023-04-08T08:03:26.447Z,94613.00
2023-04-08T08:04:26.348Z,94613.00
2023-04-08T08:05:26.221Z,94611.00
2023-04-08T08:06:26.265Z,94609.00
2023-04-08T08:07:26.259Z,94611.00
2023-04-08T08:08:26.272Z,94609.00
2023-04-08T08:09:26.275Z,94607.00
2023-04-08T08:10:26.286Z,94609.00
2023-04-08T08:11:26.283Z,94607.00
2023-04-08T08:12:26.308Z,94607.00
2023-04-08T08:13:26.325Z,94609.00
2023-04-08T08:14:26.351Z,94609.00
2023-04-08T08:15:26.380Z,94611.00
2023-04-08T08:16:26.457Z,94609.00
2023-04-08T08:17:28.112Z,94607.00
2023-04-08T08:18:26.517Z,94607.00
2023-04-08T08:19:26.571Z,94607.00
2023-04-08T08:20:26.638Z,94605.00
2023-04-08T08:21:26.680Z,94605.00
2023-04-08T08:22:26.760Z,94607.00
2023-04-08T08:23:26.782Z,94605.00
2023-04-08T08:24:26.856Z,94602.00
2023-04-08T08:25:26.894Z,94604.00
2023-04-08T08:26:26.986Z,94600.00
2023-04-08T08:27:27.017Z,94600.00
2023-04-08T08:28:27.061Z,94602.00
2023-04-08T08:29:27.083Z,94602.00
2023-04-08T08:30:27.147Z,94600.00
2023-04-08T08:31:27.309Z,94602.00
2023-04-08T08:32:27.284Z,94600.00
2023-04-08T08:33:27.288Z,94600.00
2023-04-08T08:34:27.322Z,94596.00
2023-04-08T08:35:27.318Z,94596.00
2023-04-08T08:36:27.506Z,94596.00
2023-04-08T08:37:27.671Z,94596.00
2023-04-08T08:38:27.879Z,94592.00
2023-04-08T08:39:28.008Z,94590.00
2023-04-08T08:40:28.203Z,94590.00
2023-04-08T08:41:28.373Z,94590.00
2023-04-08T08:42:28.527Z,94590.00
2023-04-08T08:43:28.753Z,94588.00
2023-04-08T08:44:28.877Z,94588.00
2023-04-08T08:45:29.065Z,94590.00
2023-04-08T08:46:29.244Z,94588.00
2023-04-08T08:47:29.421Z,94586.00
2023-04-08T08:48:29.542Z,94584.00
2023-04-08T08:49:29.672Z,94584.00
2023-04-08T08:50:29.845Z,94584.00
2023-04-08T08:51:29.988Z,94584.00
2023-04-08T08:52:30.144Z,94582.00
2023-04-08T08:53:30.379Z,94582.00
2023-04-08T08:54:30.362Z,94584.00
2023-04-08T08:55:46.774Z,94580.00
2023-04-08T08:56:31.392Z,94578.00
2023-04-08T08:57:30.389Z,94580.00
2023-04-08T08:58:30.379Z,94578.00
2023-04-08T08:59:30.375Z,94576.00
2023-04-08T09:00:32.077Z,94574.00
2023-04-08T09:01:30.581Z,94580.00
2023-04-08T09:02:30.527Z,94576.00
2023-04-08T09:03:30.715Z,94574.00
2023-04-08T09:04:30.428Z,94574.00
2023-04-08T09:05:30.420Z,94572.00
2023-04-08T09:06:30.318Z,94574.00
2023-04-08T09:07:30.320Z,94574.00
2023-04-08T09:08:30.314Z,94574.00
2023-04-08T09:09:30.286Z,94574.00
2023-04-08T09:10:30.322Z,94572.00
2023-04-08T09:11:30.283Z,94572.00
2023-04-08T09:12:30.282Z,94570.00
2023-04-08T09:13:30.260Z,94570.00
2023-04-08T09:14:30.266Z,94570.00
2023-04-08T09:15:30.241Z,94570.00
2023-04-08T09:16:30.264Z,94568.00
2023-04-08T09:17:30.243Z,94566.00
2023-04-08T09:18:30.231Z,94565.00
2023-04-08T09:19:30.230Z,94563.00
2023-04-08T09:20:30.227Z,94565.00
2023-04-08T09:21:30.215Z,94563.00
2023-04-08T09:22:30.191Z,94563.00
2023-04-08T09:23:30.185Z,94560.00
2023-04-08T09:24:30.183Z,94560.00
2023-04-08T09:25:30.197Z,94558.00
2023-04-08T09:26:30.173Z,94557.00
2023-04-08T09:27:30.172Z,94555.00
2023-04-08T09:28:30.224Z,94557.00
2023-04-08T09:29:33.831Z,94557.00
2023-04-08T09:30:30.151Z,94557.00
2023-04-08T09:31:30.145Z,94555.00
2023-04-08T09:32:30.144Z,94557.00
2023-04-08T09:33:30.129Z,94555.00
2023-04-08T09:34:30.122Z,94551.00
2023-04-08T09:35:30.173Z,94551.00
2023-04-08T09:36:30.114Z,94551.00
2023-04-08T09:37:30.093Z,94549.00
2023-04-08T09:38:30.132Z,94547.00
2023-04-08T09:39:30.189Z,94549.00
2023-04-08T09:40:30.073Z,94549.00
2023-04-08T09:41:30.069Z,94539.00
2023-04-08T09:42:30.054Z,94541.00
2023-04-08T09:43:30.066Z,94541.00
2023-04-08T09:44:30.058Z,94539.00
2023-04-08T09:45:30.147Z,94541.00
2023-04-08T09:46:30.038Z,94541.00
2023-04-08T09:47:30.059Z,94541.00
2023-04-08T09:48:30.044Z,94539.00
2023-04-08T09:49:30.043Z,94535.00
2023-04-08T09:50:30.020Z,94531.00
2023-04-08T09:51:30.014Z,94533.00
2023-04-08T09:52:29.995Z,94529.00
2023-04-08T09:53:29.993Z,94527.00
2023-04-08T09:54:29.972Z,94527.00
2023-04-08T09:55:29.993Z,94531.00
2023-04-08T09:56:29.965Z,94529.00
2023-04-08T09:57:29.972Z,94531.00
2023-04-08T09:58:29.958Z,94529.00
2023-04-08T09:59:29.959Z,94531.00
2023-04-08T10:00:29.952Z,94529.00
2023-04-08T10:01:30.012Z,94531.00
2023-04-08T10:02:30.059Z,94527.00
2023-04-08T10:03:30.020Z,94529.00
2023-04-08T10:04:29.997Z,94527.00
2023-04-08T10:05:29.907Z,94525.00
2023-04-08T10:06:29.902Z,94525.00
2023-04-08T10:07:29.908Z,94525.00
2023-04-08T10:08:29.887Z,94523.00
2023-04-08T10:09:29.890Z,94523.00
2023-04-08T10:10:29.866Z,94527.00
2023-04-08T10:11:29.892Z,94525.00
2023-04-08T10:12:29.913Z,94523.00
2023-04-08T10:13:29.953Z,94521.00
2023-04-08T10:14:29.962Z,94519.00
2023-04-08T10:15:30.009Z,94525.00
2023-04-08T10:16:30.087Z,94525.00
2023-04-08T10:17:30.142Z,94523.00
2023-04-08T10:18:30.076Z,94523.00
2023-04-08T10:19:30.093Z,94523.00
2023-04-08T10:20:30.118Z,94523.00
2023-04-08T10:21:30.164Z,94523.00
2023-04-08T10:22:30.189Z,94523.00
2023-04-08T10:23:30.219Z,94521.00
2023-04-08T10:24:30.227Z,94525.00
2023-04-08T10:25:30.286Z,94525.00
2023-04-08T10:26:30.313Z,94523.00
2023-04-08T10:27:30.332Z,94519.00
2023-04-08T10:28:30.418Z,94519.00
2023-04-08T10:29:30.417Z,94521.00
2023-04-08T10:30:30.443Z,94519.00
2023-04-08T10:31:30.529Z,94519.00
2023-04-08T10:32:30.574Z,94523.00
2023-04-08T10:33:30.593Z,94523.00
2023-04-08T10:34:30.597Z,94525.00
2023-04-08T10:35:30.714Z,94523.00
2023-04-08T10:36:30.718Z,94521.00
2023-04-08T10:37:30.724Z,94523.00
2023-04-08T10:38:30.751Z,94525.00
2023-04-08T10:39:30.808Z,94523.00
2023-04-08T10:40:30.837Z,94529.00
2023-04-08T10:41:30.881Z,94527.00
2023-04-08T10:42:30.925Z,94527.00
2023-04-08T10:43:30.963Z,94527.00
2023-04-08T10:44:30.996Z,94525.00
2023-04-08T10:45:31.048Z,94519.00
2023-04-08T10:46:31.247Z,94525.00
2023-04-08T10:47:31.174Z,94525.00
2023-04-08T10:48:31.187Z,94527.00
2023-04-08T10:49:31.285Z,94525.00
2023-04-08T10:50:31.281Z,94518.00
2023-04-08T10:51:33.361Z,94521.00
2023-04-08T10:52:31.369Z,94525.00
2023-04-08T10:53:31.430Z,94529.00
2023-04-08T10:54:31.489Z,94529.00
2023-04-08T10:55:31.537Z,94525.00
2023-04-08T10:56:31.558Z,94527.00
2023-04-08T10:57:31.619Z,94527.00
2023-04-08T10:58:31.679Z,94529.00
2023-04-08T10:59:31.704Z,94527.00
2023-04-08T11:00:31.779Z,94527.00
2023-04-08T11:01:31.960Z,94523.00
2023-04-08T11:02:32.059Z,94525.00
2023-04-08T11:03:32.298Z,94521.00
2023-04-08T11:04:32.384Z,94521.00
2023-04-08T11:05:32.429Z,94525.00
2023-04-08T11:06:32.570Z,94527.00
2023-04-08T11:07:32.668Z,94525.00
2023-04-08T11:08:32.863Z,94525.00
2023-04-08T11:09:32.832Z,94529.00
2023-04-08T11:10:32.894Z,94529.00
2023-04-08T11:11:32.943Z,94529.00
2023-04-08T11:12:32.971Z,94529.00
2023-04-08T11:13:33.030Z,94533.00
2023-04-08T11:14:33.059Z,94533.00
2023-04-08T11:15:33.182Z,94535.00
2023-04-08T11:16:33.206Z,94537.00
2023-04-08T11:17:33.223Z,94541.00
2023-04-08T11:18:33.276Z,94531.00
2023-04-08T11:19:33.317Z,94533.00
2023-04-08T11:20:33.369Z,94535.00
2023-04-08T11:21:33.422Z,94539.00
2023-04-08T11:22:33.533Z,94537.00
2023-04-08T11:23:33.542Z,94535.00
2023-04-08T11:24:33.604Z,94537.00
2023-04-08T11:25:33.634Z,94539.00
2023-04-08T11:26:33.695Z,94537.00
2023-04-08T11:27:34.189Z,94539.00
2023-04-08T11:28:33.783Z,94533.00
2023-04-08T11:29:33.843Z,94539.00
2023-04-08T11:30:33.889Z,94539.00
2023-04-08T11:31:33.960Z,94535.00
2023-04-08T11:32:34.068Z,94539.00
2023-04-08T11:33:34.027Z,94535.00
2023-04-08T11:34:34.063Z,94535.00
2023-04-08T11:35:34.142Z,94535.00
2023-04-08T11:36:34.154Z,94533.00
2023-04-08T11:37:34.202Z,94533.00
2023-04-08T11:38:34.261Z,94533.00
2023-04-08T11:39:34.299Z,94529.00
2023-04-08T11:40:34.341Z,94531.00
2023-04-08T11:41:34.389Z,94533.00
2023-04-08T11:42:34.421Z,94535.00
2023-04-08T11:43:34.481Z,94529.00
2023-04-08T11:44:34.520Z,94531.00